Big Bear Station Historical Data
Daily Summary for June 13, 2019 Units:  English    Metric   Both
Next Day »
Daily Weekly Monthly Yearly Custom
  High: Low: Average:
Temperature: 78.6 °F 56.5 °F 68.7 °F
Dew Point: 52.1 °F 42 °F 46.5 °F
Humidity: 66% 29% 46%
Wind Speed: 6.3mph 0mph 3mph
Wind Gust: -999mph - -
Wind- - WNW
Pressure: 23.55 in 23.50 in -
Precipitation: 0 in    
Historical Graphs
 
 
Tabular Data for June 13, 2019
Time Temperature Dew Point Pressure Wind Wind Speed Wind Gust Humidity Rainfall Rate (Hourly)
11:08 70.2 °F 43.4 °F 23.54 in Calm   -999 mph 38% 0.00 in
11:23 71.2 °F 46.3 °F 23.55 in Calm   -999 mph 41% 0.00 in
11:38 72.5 °F 45.5 °F 23.55 in NNW 4.7 mph -999 mph 38% 0.00 in
11:54 73.2 °F 48.7 °F 23.55 in NW 4.7 mph -999 mph 42% 0.00 in
12:09 74.1 °F 49.5 °F 23.55 in NW 4.7 mph -999 mph 42% 0.00 in
12:24 73.9 °F 49.4 °F 23.55 in NW 4.7 mph -999 mph 42% 0.00 in
12:39 74.8 °F 51.4 °F 23.55 in NW 4.7 mph -999 mph 44% 0.00 in
12:54 76.3 °F 43.4 °F 23.55 in NW 5.3 mph -999 mph 31% 0.00 in
13:10 75.9 °F 48.5 °F 23.55 in NW 5.3 mph -999 mph 38% 0.00 in
13:25 76.6 °F 44.5 °F 23.55 in NNW 4.7 mph -999 mph 32% 0.00 in
13:40 76.8 °F 48.6 °F 23.55 in North 3.7 mph -999 mph 37% 0.00 in
13:56 77.4 °F 45.2 °F 23.54 in NNW 2.7 mph -999 mph 32% 0.00 in
14:11 77.9 °F 45.7 °F 23.54 in NNW 5.8 mph -999 mph 32% 0.00 in
14:27 76.5 °F 44.5 °F 23.54 in SSE 1.7 mph -999 mph 32% 0.00 in
14:42 76.8 °F 46.3 °F 23.54 in NNW 4.7 mph -999 mph 34% 0.00 in
14:58 76.6 °F 42 °F 23.54 in WNW 4.2 mph -999 mph 29% 0.00 in
15:13 77 °F 44.9 °F 23.54 in NW 4.7 mph -999 mph 32% 0.00 in
15:28 76.3 °F 46.6 °F 23.53 in NW 6.3 mph -999 mph 35% 0.00 in
15:44 75.2 °F 46.4 °F 23.53 in NW 5.3 mph -999 mph 36% 0.00 in
15:59 74.5 °F 45.8 °F 23.53 in NW 4.7 mph -999 mph 36% 0.00 in
16:14 73.8 °F 49.3 °F 23.53 in NNW 4.7 mph -999 mph 42% 0.00 in
16:29 74.7 °F 48.1 °F 23.52 in NW 5.3 mph -999 mph 39% 0.00 in
16:44 76.8 °F 48.6 °F 23.52 in NW 3.2 mph -999 mph 37% 0.00 in
17:00 78.6 °F 50.9 °F 23.51 in North 2.7 mph -999 mph 38% 0.00 in
17:15 75.6 °F 51.5 °F 23.51 in WNW 5.8 mph -999 mph 43% 0.00 in
17:30 74.5 °F 51.8 °F 23.51 in WNW 4.2 mph -999 mph 45% 0.00 in
17:46 75 °F 50.4 °F 23.51 in NW 3.2 mph -999 mph 42% 0.00 in
18:01 72.9 °F 50.9 °F 23.50 in NW 3.7 mph -999 mph 46% 0.00 in
18:16 74.1 °F 52 °F 23.50 in WNW 1.1 mph -999 mph 46% 0.00 in
18:32 72.3 °F 51.5 °F 23.50 in NNW 5.3 mph -999 mph 48% 0.00 in
18:47 70 °F 52.1 °F 23.50 in ESE 3.2 mph -999 mph 53% 0.00 in
19:02 67.8 °F 49.5 °F 23.50 in SW 5.3 mph -999 mph 52% 0.00 in
19:17 66.4 °F 48.8 °F 23.50 in Calm   -999 mph 53% 0.00 in
19:32 62.8 °F 48.3 °F 23.50 in Calm   -999 mph 59% 0.00 in
19:48 60.8 °F 49.4 °F 23.50 in Calm   -999 mph 66% 0.00 in
20:03 59.5 °F 45.6 °F 23.50 in Calm   -999 mph 60% 0.00 in
20:18 58.5 °F 45.9 °F 23.50 in Calm   -999 mph 63% 0.00 in
20:33 57.7 °F 44.3 °F 23.50 in Calm   -999 mph 61% 0.00 in
20:48 57.2 °F 44.3 °F 23.51 in Calm   -999 mph 62% 0.00 in
21:04 56.5 °F 42.8 °F 23.51 in Calm   -999 mph 60% 0.00 in
21:19 56.5 °F 42.8 °F 23.51 in Calm   -999 mph 60% 0.00 in
21:34 56.5 °F 42.3 °F 23.51 in Calm   -999 mph 59% 0.00 in
21:49 56.5 °F 42.3 °F 23.51 in Calm   -999 mph 59% 0.00 in
22:04 56.5 °F 42.3 °F 23.51 in Calm   -999 mph 59% 0.00 in
22:20 57.6 °F 42.5 °F 23.51 in Calm   -999 mph 57% 0.00 in
22:35 58.6 °F 43 °F 23.51 in NNW 4.2 mph -999 mph 56% 0.00 in
22:50 58.8 °F 43.1 °F 23.51 in WNW 4.2 mph -999 mph 56% 0.00 in
23:06 59.4 °F 42.7 °F 23.51 in NW 5.8 mph -999 mph 54% 0.00 in
23:21 59.2 °F 42.6 °F 23.51 in NW 2.2 mph -999 mph 54% 0.00 in
23:36 58.6 °F 42.5 °F 23.51 in WSW 2.7 mph -999 mph 55% 0.00 in
23:52 58.6 °F 42.5 °F 23.50 in South 2.7 mph -999 mph 55% 0.00 in
Big Bear CA Weather